sensor_id;sensor_type;location;lat;lon;timestamp;temperature;humidity
63802;DHT22;49949;43.060;25.624;2022-12-18T00:00:45;8.70;99.90
63802;DHT22;49949;43.060;25.624;2022-12-18T00:03:15;8.70;99.90
63802;DHT22;49949;43.060;25.624;2022-12-18T00:05:51;8.70;99.90
63802;DHT22;49949;43.060;25.624;2022-12-18T00:08:18;8.70;99.90
63802;DHT22;49949;43.060;25.624;2022-12-18T00:10:44;8.70;99.90
63802;DHT22;49949;43.060;25.624;2022-12-18T00:13:11;8.70;99.90
63802;DHT22;49949;43.060;25.624;2022-12-18T00:15:38;8.70;99.90
63802;DHT22;49949;43.060;25.624;2022-12-18T00:18:04;8.70;99.90
63802;DHT22;49949;43.060;25.624;2022-12-18T00:20:30;8.60;99.90
63802;DHT22;49949;43.060;25.624;2022-12-18T00:22:56;8.60;99.90
63802;DHT22;49949;43.060;25.624;2022-12-18T00:25:22;8.50;99.90
63802;DHT22;49949;43.060;25.624;2022-12-18T00:27:48;8.50;99.90
63802;DHT22;49949;43.060;25.624;2022-12-18T00:30:13;8.50;99.90
63802;DHT22;49949;43.060;25.624;2022-12-18T00:32:39;8.50;99.90
63802;DHT22;49949;43.060;25.624;2022-12-18T00:35:06;8.50;99.90
63802;DHT22;49949;43.060;25.624;2022-12-18T00:37:33;8.40;99.90
63802;DHT22;49949;43.060;25.624;2022-12-18T00:39:59;8.30;99.90
63802;DHT22;49949;43.060;25.624;2022-12-18T00:42:25;8.30;99.90
63802;DHT22;49949;43.060;25.624;2022-12-18T00:45:09;8.40;99.90
63802;DHT22;49949;43.060;25.624;2022-12-18T00:47:35;8.40;99.90
63802;DHT22;49949;43.060;25.624;2022-12-18T00:50:01;8.50;99.90
63802;DHT22;49949;43.060;25.624;2022-12-18T00:52:26;8.60;99.90
63802;DHT22;49949;43.060;25.624;2022-12-18T00:54:52;8.50;99.90
63802;DHT22;49949;43.060;25.624;2022-12-18T00:57:17;8.40;99.90
63802;DHT22;49949;43.060;25.624;2022-12-18T00:59:43;8.50;99.90
63802;DHT22;49949;43.060;25.624;2022-12-18T01:02:09;8.40;99.90
63802;DHT22;49949;43.060;25.624;2022-12-18T01:04:34;8.50;99.90
63802;DHT22;49949;43.060;25.624;2022-12-18T01:07:00;8.50;99.90
63802;DHT22;49949;43.060;25.624;2022-12-18T01:09:26;8.40;99.90
63802;DHT22;49949;43.060;25.624;2022-12-18T01:11:52;8.40;99.90
63802;DHT22;49949;43.060;25.624;2022-12-18T01:14:17;8.40;99.90
63802;DHT22;49949;43.060;25.624;2022-12-18T01:16:43;8.40;99.90
63802;DHT22;49949;43.060;25.624;2022-12-18T01:19:09;8.40;99.90
63802;DHT22;49949;43.060;25.624;2022-12-18T01:21:36;8.50;99.90
63802;DHT22;49949;43.060;25.624;2022-12-18T01:24:01;8.50;99.90
63802;DHT22;49949;43.060;25.624;2022-12-18T01:26:27;8.50;99.90
63802;DHT22;49949;43.060;25.624;2022-12-18T01:28:58;8.40;99.90
63802;DHT22;49949;43.060;25.624;2022-12-18T01:31:27;8.20;99.90
63802;DHT22;49949;43.060;25.624;2022-12-18T01:33:53;8.20;99.90
63802;DHT22;49949;43.060;25.624;2022-12-18T01:38:46;8.20;99.90
63802;DHT22;49949;43.060;25.624;2022-12-18T01:41:13;8.20;99.90
63802;DHT22;49949;43.060;25.624;2022-12-18T01:46:13;8.20;99.90
63802;DHT22;49949;43.060;25.624;2022-12-18T01:48:39;8.20;99.90
63802;DHT22;49949;43.060;25.624;2022-12-18T01:51:08;8.30;99.90
63802;DHT22;49949;43.060;25.624;2022-12-18T01:53:34;8.10;99.90
63802;DHT22;49949;43.060;25.624;2022-12-18T01:56:01;8.00;99.90
63802;DHT22;49949;43.060;25.624;2022-12-18T01:58:59;8.10;99.90
63802;DHT22;49949;43.060;25.624;2022-12-18T02:01:26;8.10;99.90
63802;DHT22;49949;43.060;25.624;2022-12-18T02:03:53;8.10;99.90
63802;DHT22;49949;43.060;25.624;2022-12-18T02:06:43;8.10;99.90
63802;DHT22;49949;43.060;25.624;2022-12-18T02:11:51;8.00;99.90
63802;DHT22;49949;43.060;25.624;2022-12-18T02:14:28;7.90;99.90
63802;DHT22;49949;43.060;25.624;2022-12-18T02:17:06;8.00;99.90
63802;DHT22;49949;43.060;25.624;2022-12-18T02:22:27;8.00;99.90
63802;DHT22;49949;43.060;25.624;2022-12-18T02:27:40;8.10;99.90
63802;DHT22;49949;43.060;25.624;2022-12-18T02:30:08;8.10;99.90
63802;DHT22;49949;43.060;25.624;2022-12-18T02:32:43;8.00;99.90
63802;DHT22;49949;43.060;25.624;2022-12-18T02:35:15;8.00;99.90
63802;DHT22;49949;43.060;25.624;2022-12-18T02:37:43;8.00;99.90
63802;DHT22;49949;43.060;25.624;2022-12-18T02:40:11;8.10;99.90
63802;DHT22;49949;43.060;25.624;2022-12-18T02:42:38;8.10;99.90
63802;DHT22;49949;43.060;25.624;2022-12-18T02:45:04;8.10;99.90
63802;DHT22;49949;43.060;25.624;2022-12-18T02:47:37;8.10;99.90
63802;DHT22;49949;43.060;25.624;2022-12-18T03:01:36;8.10;99.90
63802;DHT22;49949;43.060;25.624;2022-12-18T03:04:32;8.10;99.90
63802;DHT22;49949;43.060;25.624;2022-12-18T03:07:09;8.00;99.90
63802;DHT22;49949;43.060;25.624;2022-12-18T03:09:36;8.00;99.90
63802;DHT22;49949;43.060;25.624;2022-12-18T03:17:55;7.90;99.90
63802;DHT22;49949;43.060;25.624;2022-12-18T03:20:22;7.90;99.90
63802;DHT22;49949;43.060;25.624;2022-12-18T03:22:53;7.80;99.90
63802;DHT22;49949;43.060;25.624;2022-12-18T03:25:19;7.80;99.90
63802;DHT22;49949;43.060;25.624;2022-12-18T03:27:51;7.70;99.90
63802;DHT22;49949;43.060;25.624;2022-12-18T03:30:20;7.50;99.90
63802;DHT22;49949;43.060;25.624;2022-12-18T03:35:35;7.50;99.90
63802;DHT22;49949;43.060;25.624;2022-12-18T03:38:01;7.50;99.90
63802;DHT22;49949;43.060;25.624;2022-12-18T03:40:35;7.50;99.90
63802;DHT22;49949;43.060;25.624;2022-12-18T03:43:10;7.50;99.90
63802;DHT22;49949;43.060;25.624;2022-12-18T03:45:48;7.50;99.90
63802;DHT22;49949;43.060;25.624;2022-12-18T03:48:27;7.50;99.90
63802;DHT22;49949;43.060;25.624;2022-12-18T03:51:00;7.60;99.90
63802;DHT22;49949;43.060;25.624;2022-12-18T03:56:02;7.50;99.90
63802;DHT22;49949;43.060;25.624;2022-12-18T03:58:31;7.40;99.90
63802;DHT22;49949;43.060;25.624;2022-12-18T04:01:01;7.30;99.90
63802;DHT22;49949;43.060;25.624;2022-12-18T04:03:29;7.40;99.90
63802;DHT22;49949;43.060;25.624;2022-12-18T04:05:57;7.40;99.90
63802;DHT22;49949;43.060;25.624;2022-12-18T04:08:24;7.50;99.90
63802;DHT22;49949;43.060;25.624;2022-12-18T04:10:51;7.50;99.90
63802;DHT22;49949;43.060;25.624;2022-12-18T04:13:24;7.40;99.90
63802;DHT22;49949;43.060;25.624;2022-12-18T04:15:52;7.30;99.90
63802;DHT22;49949;43.060;25.624;2022-12-18T04:18:18;7.30;99.90
63802;DHT22;49949;43.060;25.624;2022-12-18T04:20:44;7.30;99.90
63802;DHT22;49949;43.060;25.624;2022-12-18T04:23:10;7.30;99.90
63802;DHT22;49949;43.060;25.624;2022-12-18T04:25:35;7.20;99.90
63802;DHT22;49949;43.060;25.624;2022-12-18T04:28:01;7.20;99.90
63802;DHT22;49949;43.060;25.624;2022-12-18T04:30:27;7.20;99.90
63802;DHT22;49949;43.060;25.624;2022-12-18T04:32:52;7.20;99.90
63802;DHT22;49949;43.060;25.624;2022-12-18T04:35:18;7.10;99.90
63802;DHT22;49949;43.060;25.624;2022-12-18T04:37:44;7.10;99.90
63802;DHT22;49949;43.060;25.624;2022-12-18T04:40:10;7.10;99.90
63802;DHT22;49949;43.060;25.624;2022-12-18T04:42:36;7.10;99.90
63802;DHT22;49949;43.060;25.624;2022-12-18T04:45:01;7.20;99.90
63802;DHT22;49949;43.060;25.624;2022-12-18T04:47:27;7.10;99.90
63802;DHT22;49949;43.060;25.624;2022-12-18T04:49:53;7.00;99.90
63802;DHT22;49949;43.060;25.624;2022-12-18T04:52:18;7.00;99.90
63802;DHT22;49949;43.060;25.624;2022-12-18T04:54:44;7.00;99.90
63802;DHT22;49949;43.060;25.624;2022-12-18T04:57:10;7.10;99.90
63802;DHT22;49949;43.060;25.624;2022-12-18T04:59:35;7.10;99.90
63802;DHT22;49949;43.060;25.624;2022-12-18T05:02:01;7.10;99.90
63802;DHT22;49949;43.060;25.624;2022-12-18T05:04:27;7.10;99.90
63802;DHT22;49949;43.060;25.624;2022-12-18T05:06:52;7.10;99.90
63802;DHT22;49949;43.060;25.624;2022-12-18T05:09:18;7.20;99.90
63802;DHT22;49949;43.060;25.624;2022-12-18T05:11:44;7.20;99.90
63802;DHT22;49949;43.060;25.624;2022-12-18T05:14:09;7.20;99.90
63802;DHT22;49949;43.060;25.624;2022-12-18T05:16:35;7.20;99.90
63802;DHT22;49949;43.060;25.624;2022-12-18T05:19:01;7.20;99.90
63802;DHT22;49949;43.060;25.624;2022-12-18T05:21:26;7.20;99.90
63802;DHT22;49949;43.060;25.624;2022-12-18T05:23:52;7.20;99.90
63802;DHT22;49949;43.060;25.624;2022-12-18T05:26:18;7.20;99.90
63802;DHT22;49949;43.060;25.624;2022-12-18T05:28:44;7.20;99.90
63802;DHT22;49949;43.060;25.624;2022-12-18T05:31:10;7.20;99.90
63802;DHT22;49949;43.060;25.624;2022-12-18T05:33:36;7.20;99.90
63802;DHT22;49949;43.060;25.624;2022-12-18T05:36:04;7.20;99.90
63802;DHT22;49949;43.060;25.624;2022-12-18T05:38:31;7.20;99.90
63802;DHT22;49949;43.060;25.624;2022-12-18T05:40:57;7.20;99.90
63802;DHT22;49949;43.060;25.624;2022-12-18T05:43:24;7.20;99.90
63802;DHT22;49949;43.060;25.624;2022-12-18T05:45:50;7.20;99.90
63802;DHT22;49949;43.060;25.624;2022-12-18T05:48:17;7.20;99.90
63802;DHT22;49949;43.060;25.624;2022-12-18T05:50:44;7.20;99.90
63802;DHT22;49949;43.060;25.624;2022-12-18T05:53:14;7.20;99.90
63802;DHT22;49949;43.060;25.624;2022-12-18T05:55:41;7.20;99.90
63802;DHT22;49949;43.060;25.624;2022-12-18T05:58:09;7.20;99.90
63802;DHT22;49949;43.060;25.624;2022-12-18T06:00:36;7.20;99.90
63802;DHT22;49949;43.060;25.624;2022-12-18T06:03:06;7.10;99.90
63802;DHT22;49949;43.060;25.624;2022-12-18T06:05:39;7.10;99.90
63802;DHT22;49949;43.060;25.624;2022-12-18T06:08:06;7.10;99.90
63802;DHT22;49949;43.060;25.624;2022-12-18T06:10:32;7.10;99.90
63802;DHT22;49949;43.060;25.624;2022-12-18T06:12:58;7.10;99.90
63802;DHT22;49949;43.060;25.624;2022-12-18T06:15:23;7.10;99.90
63802;DHT22;49949;43.060;25.624;2022-12-18T06:17:49;7.10;99.90
63802;DHT22;49949;43.060;25.624;2022-12-18T06:20:16;7.10;99.90
63802;DHT22;49949;43.060;25.624;2022-12-18T06:22:41;7.10;99.90
63802;DHT22;49949;43.060;25.624;2022-12-18T06:25:07;7.10;99.90
63802;DHT22;49949;43.060;25.624;2022-12-18T06:27:33;7.10;99.90
63802;DHT22;49949;43.060;25.624;2022-12-18T06:29:59;7.10;99.90
63802;DHT22;49949;43.060;25.624;2022-12-18T06:32:25;7.10;99.90
63802;DHT22;49949;43.060;25.624;2022-12-18T06:34:51;7.10;99.90
63802;DHT22;49949;43.060;25.624;2022-12-18T06:37:17;7.20;99.90
63802;DHT22;49949;43.060;25.624;2022-12-18T06:39:42;7.20;99.90
63802;DHT22;49949;43.060;25.624;2022-12-18T06:42:08;7.20;99.90
63802;DHT22;49949;43.060;25.624;2022-12-18T06:44:34;7.20;99.90
63802;DHT22;49949;43.060;25.624;2022-12-18T06:46:59;7.30;99.90
63802;DHT22;49949;43.060;25.624;2022-12-18T06:49:25;7.30;99.90
63802;DHT22;49949;43.060;25.624;2022-12-18T06:51:51;7.30;99.90
63802;DHT22;49949;43.060;25.624;2022-12-18T06:54:17;7.30;99.90
63802;DHT22;49949;43.060;25.624;2022-12-18T06:56:45;7.30;99.90
63802;DHT22;49949;43.060;25.624;2022-12-18T06:59:13;7.40;99.90
63802;DHT22;49949;43.060;25.624;2022-12-18T07:01:38;7.40;99.90
63802;DHT22;49949;43.060;25.624;2022-12-18T07:04:04;7.40;99.90
63802;DHT22;49949;43.060;25.624;2022-12-18T07:06:30;7.40;99.90
63802;DHT22;49949;43.060;25.624;2022-12-18T07:08:55;7.50;99.90
63802;DHT22;49949;43.060;25.624;2022-12-18T07:11:22;7.50;99.90
63802;DHT22;49949;43.060;25.624;2022-12-18T07:13:47;7.50;99.90
63802;DHT22;49949;43.060;25.624;2022-12-18T07:16:19;7.50;99.90
63802;DHT22;49949;43.060;25.624;2022-12-18T07:18:45;7.50;99.90
63802;DHT22;49949;43.060;25.624;2022-12-18T07:21:13;7.50;99.90
63802;DHT22;49949;43.060;25.624;2022-12-18T07:23:39;7.50;99.90
63802;DHT22;49949;43.060;25.624;2022-12-18T07:26:08;7.50;99.90
63802;DHT22;49949;43.060;25.624;2022-12-18T07:28:34;7.50;99.90
63802;DHT22;49949;43.060;25.624;2022-12-18T07:31:11;7.60;99.90
63802;DHT22;49949;43.060;25.624;2022-12-18T07:33:38;7.60;99.90
63802;DHT22;49949;43.060;25.624;2022-12-18T07:36:05;7.50;99.90
63802;DHT22;49949;43.060;25.624;2022-12-18T07:38:33;7.60;99.90
63802;DHT22;49949;43.060;25.624;2022-12-18T07:41:03;7.60;99.90
63802;DHT22;49949;43.060;25.624;2022-12-18T07:43:30;7.70;99.90
63802;DHT22;49949;43.060;25.624;2022-12-18T07:45:56;7.70;99.90
63802;DHT22;49949;43.060;25.624;2022-12-18T07:48:21;7.70;99.90
63802;DHT22;49949;43.060;25.624;2022-12-18T07:50:47;7.80;99.90
63802;DHT22;49949;43.060;25.624;2022-12-18T07:53:13;7.90;99.90
63802;DHT22;49949;43.060;25.624;2022-12-18T07:55:42;7.90;99.90
63802;DHT22;49949;43.060;25.624;2022-12-18T07:58:08;8.00;99.90
63802;DHT22;49949;43.060;25.624;2022-12-18T08:00:35;8.00;99.90
63802;DHT22;49949;43.060;25.624;2022-12-18T08:03:00;8.00;99.90
63802;DHT22;49949;43.060;25.624;2022-12-18T08:05:27;8.10;99.90
63802;DHT22;49949;43.060;25.624;2022-12-18T08:07:53;8.20;99.90
63802;DHT22;49949;43.060;25.624;2022-12-18T08:10:19;8.30;99.90
63802;DHT22;49949;43.060;25.624;2022-12-18T08:12:45;8.30;99.90
63802;DHT22;49949;43.060;25.624;2022-12-18T08:15:11;8.40;99.90
63802;DHT22;49949;43.060;25.624;2022-12-18T08:17:36;8.50;99.90
63802;DHT22;49949;43.060;25.624;2022-12-18T08:20:02;8.40;99.90
63802;DHT22;49949;43.060;25.624;2022-12-18T08:22:28;8.40;99.90
63802;DHT22;49949;43.060;25.624;2022-12-18T08:24:54;8.50;99.90
63802;DHT22;49949;43.060;25.624;2022-12-18T08:27:20;8.50;99.90
63802;DHT22;49949;43.060;25.624;2022-12-18T08:29:46;8.50;99.90
63802;DHT22;49949;43.060;25.624;2022-12-18T08:32:12;8.50;99.90
63802;DHT22;49949;43.060;25.624;2022-12-18T08:34:37;8.50;99.90
63802;DHT22;49949;43.060;25.624;2022-12-18T08:37:03;8.50;99.90
63802;DHT22;49949;43.060;25.624;2022-12-18T08:39:29;8.40;99.90
63802;DHT22;49949;43.060;25.624;2022-12-18T08:41:54;8.30;99.90
63802;DHT22;49949;43.060;25.624;2022-12-18T08:44:38;8.30;99.90
63802;DHT22;49949;43.060;25.624;2022-12-18T08:47:07;8.30;99.90
63802;DHT22;49949;43.060;25.624;2022-12-18T08:49:34;8.30;99.90
63802;DHT22;49949;43.060;25.624;2022-12-18T08:52:00;8.30;99.90
63802;DHT22;49949;43.060;25.624;2022-12-18T08:54:27;8.30;99.90
63802;DHT22;49949;43.060;25.624;2022-12-18T08:56:52;8.40;99.90
63802;DHT22;49949;43.060;25.624;2022-12-18T08:59:18;8.40;99.90
63802;DHT22;49949;43.060;25.624;2022-12-18T09:01:45;8.40;99.90
63802;DHT22;49949;43.060;25.624;2022-12-18T09:04:11;8.40;99.90
63802;DHT22;49949;43.060;25.624;2022-12-18T09:06:38;8.50;99.90
63802;DHT22;49949;43.060;25.624;2022-12-18T09:09:04;8.40;99.90
63802;DHT22;49949;43.060;25.624;2022-12-18T09:11:31;8.40;99.90
63802;DHT22;49949;43.060;25.624;2022-12-18T09:13:59;8.40;99.90
63802;DHT22;49949;43.060;25.624;2022-12-18T09:16:26;8.50;99.90
63802;DHT22;49949;43.060;25.624;2022-12-18T09:18:56;8.40;99.90
63802;DHT22;49949;43.060;25.624;2022-12-18T09:21:26;8.40;99.90
63802;DHT22;49949;43.060;25.624;2022-12-18T09:23:54;8.50;99.90
63802;DHT22;49949;43.060;25.624;2022-12-18T09:26:20;8.50;99.90
63802;DHT22;49949;43.060;25.624;2022-12-18T09:28:46;8.60;99.90
63802;DHT22;49949;43.060;25.624;2022-12-18T09:31:12;8.70;99.90
63802;DHT22;49949;43.060;25.624;2022-12-18T09:33:38;8.70;99.90
63802;DHT22;49949;43.060;25.624;2022-12-18T09:36:06;8.80;99.90
63802;DHT22;49949;43.060;25.624;2022-12-18T09:38:33;8.80;99.90
63802;DHT22;49949;43.060;25.624;2022-12-18T09:44:25;8.70;99.90
63802;DHT22;49949;43.060;25.624;2022-12-18T09:46:54;8.60;99.90
63802;DHT22;49949;43.060;25.624;2022-12-18T09:49:24;8.50;99.90
63802;DHT22;49949;43.060;25.624;2022-12-18T09:51:59;8.50;99.90
63802;DHT22;49949;43.060;25.624;2022-12-18T09:54:39;8.60;99.90
63802;DHT22;49949;43.060;25.624;2022-12-18T09:57:05;8.60;99.90
63802;DHT22;49949;43.060;25.624;2022-12-18T09:59:37;8.80;99.90
63802;DHT22;49949;43.060;25.624;2022-12-18T10:04:40;9.00;99.90
63802;DHT22;49949;43.060;25.624;2022-12-18T10:07:35;9.10;99.90
63802;DHT22;49949;43.060;25.624;2022-12-18T10:10:18;9.20;99.90
63802;DHT22;49949;43.060;25.624;2022-12-18T10:21:17;9.50;99.90
63802;DHT22;49949;43.060;25.624;2022-12-18T10:26:27;9.30;99.90
63802;DHT22;49949;43.060;25.624;2022-12-18T10:28:53;9.20;99.90
63802;DHT22;49949;43.060;25.624;2022-12-18T10:31:23;9.10;99.90
63802;DHT22;49949;43.060;25.624;2022-12-18T10:33:49;9.10;99.90
63802;DHT22;49949;43.060;25.624;2022-12-18T10:36:15;9.10;99.90
63802;DHT22;49949;43.060;25.624;2022-12-18T10:38:41;9.00;99.90
63802;DHT22;49949;43.060;25.624;2022-12-18T10:44:12;8.90;99.90
63802;DHT22;49949;43.060;25.624;2022-12-18T10:46:38;9.00;99.90
63802;DHT22;49949;43.060;25.624;2022-12-18T10:49:04;8.90;99.90
63802;DHT22;49949;43.060;25.624;2022-12-18T10:51:34;9.10;99.90
63802;DHT22;49949;43.060;25.624;2022-12-18T10:54:06;9.20;99.90
63802;DHT22;49949;43.060;25.624;2022-12-18T10:56:38;9.20;99.90
63802;DHT22;49949;43.060;25.624;2022-12-18T10:59:06;9.10;99.90
63802;DHT22;49949;43.060;25.624;2022-12-18T11:01:55;9.10;99.90
63802;DHT22;49949;43.060;25.624;2022-12-18T11:07:05;8.90;99.90
63802;DHT22;49949;43.060;25.624;2022-12-18T11:09:37;8.90;99.90
63802;DHT22;49949;43.060;25.624;2022-12-18T11:12:20;9.00;99.90
63802;DHT22;49949;43.060;25.624;2022-12-18T11:14:52;9.00;99.90
63802;DHT22;49949;43.060;25.624;2022-12-18T11:19:56;9.10;99.90
63802;DHT22;49949;43.060;25.624;2022-12-18T11:22:34;9.20;99.90
63802;DHT22;49949;43.060;25.624;2022-12-18T11:27:47;9.50;99.90
63802;DHT22;49949;43.060;25.624;2022-12-18T11:30:28;9.60;99.90
63802;DHT22;49949;43.060;25.624;2022-12-18T11:33:06;9.50;99.90
63802;DHT22;49949;43.060;25.624;2022-12-18T11:35:59;9.40;99.90
63802;DHT22;49949;43.060;25.624;2022-12-18T11:38:39;9.50;99.90
63802;DHT22;49949;43.060;25.624;2022-12-18T11:41:54;9.50;99.90
63802;DHT22;49949;43.060;25.624;2022-12-18T11:44:46;9.40;99.90
63802;DHT22;49949;43.060;25.624;2022-12-18T11:50:00;9.10;99.90
63802;DHT22;49949;43.060;25.624;2022-12-18T11:52:28;9.10;99.90
63802;DHT22;49949;43.060;25.624;2022-12-18T11:55:00;9.10;99.90
63802;DHT22;49949;43.060;25.624;2022-12-18T11:57:55;9.00;99.90
63802;DHT22;49949;43.060;25.624;2022-12-18T12:00:23;8.90;99.90
63802;DHT22;49949;43.060;25.624;2022-12-18T12:13:13;8.40;99.90
63802;DHT22;49949;43.060;25.624;2022-12-18T12:18:41;8.20;99.90
63802;DHT22;49949;43.060;25.624;2022-12-18T12:21:23;8.20;99.90
63802;DHT22;49949;43.060;25.624;2022-12-18T12:27:10;8.20;99.90
63802;DHT22;49949;43.060;25.624;2022-12-18T12:32:53;8.10;99.90
63802;DHT22;49949;43.060;25.624;2022-12-18T12:40:41;7.90;99.90
63802;DHT22;49949;43.060;25.624;2022-12-18T12:45:55;7.70;99.90
63802;DHT22;49949;43.060;25.624;2022-12-18T12:49:18;7.60;99.90
63802;DHT22;49949;43.060;25.624;2022-12-18T12:51:40;7.60;99.90
63802;DHT22;49949;43.060;25.624;2022-12-18T12:54:23;7.60;99.90
63802;DHT22;49949;43.060;25.624;2022-12-18T12:57:02;7.60;99.90
63802;DHT22;49949;43.060;25.624;2022-12-18T12:59:32;7.50;99.90
63802;DHT22;49949;43.060;25.624;2022-12-18T13:07:51;7.50;99.90
63802;DHT22;49949;43.060;25.624;2022-12-18T13:12:57;7.50;99.90
63802;DHT22;49949;43.060;25.624;2022-12-18T13:18:05;7.60;99.90
63802;DHT22;49949;43.060;25.624;2022-12-18T13:34:24;7.40;99.90
63802;DHT22;49949;43.060;25.624;2022-12-18T13:36:50;7.30;99.90
63802;DHT22;49949;43.060;25.624;2022-12-18T13:41:49;7.30;99.90
63802;DHT22;49949;43.060;25.624;2022-12-18T13:44:38;7.30;99.90
63802;DHT22;49949;43.060;25.624;2022-12-18T13:47:30;7.20;99.90
63802;DHT22;49949;43.060;25.624;2022-12-18T13:49:57;7.10;99.90
63802;DHT22;49949;43.060;25.624;2022-12-18T13:52:28;7.20;99.90
63802;DHT22;49949;43.060;25.624;2022-12-18T13:54:56;7.10;99.90
63802;DHT22;49949;43.060;25.624;2022-12-18T13:57:35;7.10;99.90
63802;DHT22;49949;43.060;25.624;2022-12-18T14:02:47;7.00;99.90
63802;DHT22;49949;43.060;25.624;2022-12-18T14:05:22;7.00;99.90
63802;DHT22;49949;43.060;25.624;2022-12-18T14:07:48;7.00;99.90
63802;DHT22;49949;43.060;25.624;2022-12-18T14:10:16;7.00;99.90
63802;DHT22;49949;43.060;25.624;2022-12-18T14:12:47;6.90;99.90
63802;DHT22;49949;43.060;25.624;2022-12-18T14:15:29;6.90;99.90
63802;DHT22;49949;43.060;25.624;2022-12-18T14:18:00;6.80;99.90
63802;DHT22;49949;43.060;25.624;2022-12-18T14:20:27;6.70;99.90
63802;DHT22;49949;43.060;25.624;2022-12-18T14:22:54;6.70;99.90
63802;DHT22;49949;43.060;25.624;2022-12-18T14:25:23;6.70;99.90
63802;DHT22;49949;43.060;25.624;2022-12-18T14:28:13;6.70;99.90
63802;DHT22;49949;43.060;25.624;2022-12-18T14:30:41;6.70;99.90
63802;DHT22;49949;43.060;25.624;2022-12-18T14:33:14;6.70;99.90
63802;DHT22;49949;43.060;25.624;2022-12-18T14:38:31;6.70;99.90
63802;DHT22;49949;43.060;25.624;2022-12-18T14:43:29;6.60;99.90
63802;DHT22;49949;43.060;25.624;2022-12-18T14:45:56;6.60;99.90
63802;DHT22;49949;43.060;25.624;2022-12-18T14:51:14;6.60;99.90
63802;DHT22;49949;43.060;25.624;2022-12-18T14:59:13;6.50;99.90
63802;DHT22;49949;43.060;25.624;2022-12-18T15:01:56;6.50;99.90
63802;DHT22;49949;43.060;25.624;2022-12-18T15:04:34;6.50;99.90
63802;DHT22;49949;43.060;25.624;2022-12-18T15:07:20;6.50;99.90
63802;DHT22;49949;43.060;25.624;2022-12-18T15:20:52;6.40;99.90
63802;DHT22;49949;43.060;25.624;2022-12-18T15:25:44;6.40;99.90
63802;DHT22;49949;43.060;25.624;2022-12-18T15:36:30;6.20;99.90
63802;DHT22;49949;43.060;25.624;2022-12-18T15:38:56;6.30;99.90
63802;DHT22;49949;43.060;25.624;2022-12-18T15:41:25;6.20;99.90
63802;DHT22;49949;43.060;25.624;2022-12-18T15:43:52;6.20;99.90
63802;DHT22;49949;43.060;25.624;2022-12-18T15:46:20;6.20;99.90
63802;DHT22;49949;43.060;25.624;2022-12-18T15:48:48;6.20;99.90
63802;DHT22;49949;43.060;25.624;2022-12-18T15:51:31;6.20;99.90
63802;DHT22;49949;43.060;25.624;2022-12-18T15:54:00;6.20;99.90
63802;DHT22;49949;43.060;25.624;2022-12-18T15:56:29;6.20;99.90
63802;DHT22;49949;43.060;25.624;2022-12-18T15:59:33;6.10;99.90
63802;DHT22;49949;43.060;25.624;2022-12-18T16:01:58;6.00;99.90
63802;DHT22;49949;43.060;25.624;2022-12-18T16:04:24;5.90;99.90
63802;DHT22;49949;43.060;25.624;2022-12-18T16:06:50;5.90;99.90
63802;DHT22;49949;43.060;25.624;2022-12-18T16:09:17;5.90;99.90
63802;DHT22;49949;43.060;25.624;2022-12-18T16:11:43;5.90;99.90
63802;DHT22;49949;43.060;25.624;2022-12-18T16:16:53;5.80;99.90
63802;DHT22;49949;43.060;25.624;2022-12-18T16:19:19;5.70;99.90
63802;DHT22;49949;43.060;25.624;2022-12-18T16:21:47;5.70;99.90
63802;DHT22;49949;43.060;25.624;2022-12-18T16:24:16;5.70;99.90
63802;DHT22;49949;43.060;25.624;2022-12-18T16:26:42;5.70;99.90
63802;DHT22;49949;43.060;25.624;2022-12-18T16:29:08;5.70;99.90
63802;DHT22;49949;43.060;25.624;2022-12-18T16:31:34;5.70;99.90
63802;DHT22;49949;43.060;25.624;2022-12-18T16:34:36;5.70;99.90
63802;DHT22;49949;43.060;25.624;2022-12-18T16:37:06;5.70;99.90
63802;DHT22;49949;43.060;25.624;2022-12-18T16:39:35;5.70;99.90
63802;DHT22;49949;43.060;25.624;2022-12-18T16:42:16;5.70;99.90
63802;DHT22;49949;43.060;25.624;2022-12-18T16:44:45;5.70;99.90
63802;DHT22;49949;43.060;25.624;2022-12-18T16:47:11;5.70;99.90
63802;DHT22;49949;43.060;25.624;2022-12-18T16:49:37;5.70;99.90
63802;DHT22;49949;43.060;25.624;2022-12-18T16:52:04;5.60;99.90
63802;DHT22;49949;43.060;25.624;2022-12-18T16:54:30;5.70;99.90
63802;DHT22;49949;43.060;25.624;2022-12-18T16:56:56;5.70;99.90
63802;DHT22;49949;43.060;25.624;2022-12-18T16:59:22;5.60;99.90
63802;DHT22;49949;43.060;25.624;2022-12-18T17:01:48;5.60;99.90
63802;DHT22;49949;43.060;25.624;2022-12-18T17:04:14;5.60;99.90
63802;DHT22;49949;43.060;25.624;2022-12-18T17:06:42;5.60;99.90
63802;DHT22;49949;43.060;25.624;2022-12-18T17:09:12;5.60;99.90
63802;DHT22;49949;43.060;25.624;2022-12-18T17:11:39;5.50;99.90
63802;DHT22;49949;43.060;25.624;2022-12-18T17:14:06;5.50;99.90
63802;DHT22;49949;43.060;25.624;2022-12-18T17:16:32;5.40;99.90
63802;DHT22;49949;43.060;25.624;2022-12-18T17:18:58;5.50;99.90
63802;DHT22;49949;43.060;25.624;2022-12-18T17:21:24;5.40;99.90
63802;DHT22;49949;43.060;25.624;2022-12-18T17:23:50;5.50;99.90
63802;DHT22;49949;43.060;25.624;2022-12-18T17:26:15;5.40;99.90
63802;DHT22;49949;43.060;25.624;2022-12-18T17:28:41;5.40;99.90
63802;DHT22;49949;43.060;25.624;2022-12-18T17:31:26;5.40;99.90
63802;DHT22;49949;43.060;25.624;2022-12-18T17:33:53;5.40;99.90
63802;DHT22;49949;43.060;25.624;2022-12-18T17:36:19;5.40;99.90
63802;DHT22;49949;43.060;25.624;2022-12-18T17:38:52;5.40;99.90
63802;DHT22;49949;43.060;25.624;2022-12-18T17:41:18;5.40;99.90
63802;DHT22;49949;43.060;25.624;2022-12-18T17:43:59;5.40;99.90
63802;DHT22;49949;43.060;25.624;2022-12-18T17:46:26;5.40;99.90
63802;DHT22;49949;43.060;25.624;2022-12-18T17:48:56;5.30;99.90
63802;DHT22;49949;43.060;25.624;2022-12-18T17:51:22;5.40;99.90
63802;DHT22;49949;43.060;25.624;2022-12-18T17:53:48;5.40;99.90
63802;DHT22;49949;43.060;25.624;2022-12-18T17:56:16;5.30;99.90
63802;DHT22;49949;43.060;25.624;2022-12-18T17:58:42;5.30;99.90
63802;DHT22;49949;43.060;25.624;2022-12-18T18:01:08;5.40;99.90
63802;DHT22;49949;43.060;25.624;2022-12-18T18:03:34;5.30;99.90
63802;DHT22;49949;43.060;25.624;2022-12-18T18:06:03;5.30;99.90
63802;DHT22;49949;43.060;25.624;2022-12-18T18:08:29;5.30;99.90
63802;DHT22;49949;43.060;25.624;2022-12-18T18:10:56;5.30;99.90
63802;DHT22;49949;43.060;25.624;2022-12-18T18:13:42;5.30;99.90
63802;DHT22;49949;43.060;25.624;2022-12-18T18:18:55;5.30;99.90
63802;DHT22;49949;43.060;25.624;2022-12-18T18:21:20;5.30;99.90
63802;DHT22;49949;43.060;25.624;2022-12-18T18:23:46;5.20;99.90
63802;DHT22;49949;43.060;25.624;2022-12-18T18:26:12;5.30;99.90
63802;DHT22;49949;43.060;25.624;2022-12-18T18:28:37;5.20;99.90